createdAt,value
2023-04-15T00:03:08.898Z,99451.25
2023-04-15T00:13:15.297Z,99444.19
2023-04-15T00:23:19.133Z,99432.56
2023-04-15T00:33:24.111Z,99430.78
2023-04-15T00:43:27.776Z,99425.78
2023-04-15T00:53:32.804Z,99418.88
2023-04-15T01:03:37.227Z,99421.78
2023-04-15T01:13:42.720Z,99411.44
2023-04-15T01:23:49.357Z,99422.88
2023-04-15T01:33:54.326Z,99429.19
2023-04-15T01:43:58.218Z,99430.38
2023-04-15T01:54:03.190Z,99424.03
2023-04-15T02:04:08.132Z,99416.38
2023-04-15T02:14:15.906Z,99422.88
2023-04-15T02:24:19.541Z,99423.09
2023-04-15T02:34:24.588Z,99428.59
2023-04-15T02:44:28.474Z,99442.03
2023-04-15T02:54:33.965Z,99451.63
2023-04-15T03:04:37.758Z,99438.19
2023-04-15T03:14:42.774Z,99438.75
2023-04-15T03:24:46.540Z,99432.69
2023-04-15T03:34:51.772Z,99441.06
2023-04-15T03:44:55.903Z,99429.69
2023-04-15T03:55:00.990Z,99424.41
2023-04-15T04:05:05.190Z,99422.75
2023-04-15T04:15:11.517Z,99427.88
2023-04-15T04:25:27.267Z,99427.63
2023-04-15T04:35:30.947Z,99436.44
2023-04-15T04:45:36.266Z,99447.13
2023-04-15T04:55:40.083Z,99433.91
2023-04-15T05:05:45.290Z,99435.28
2023-04-15T05:15:49.004Z,99450.97
2023-04-15T05:25:54.086Z,99458.22
2023-04-15T05:35:57.813Z,99467.50
2023-04-15T05:46:02.912Z,99469.19
2023-04-15T05:56:06.857Z,99472.53
2023-04-15T06:06:11.890Z,99477.34
2023-04-15T06:16:15.663Z,99473.13
2023-04-15T06:26:20.845Z,99474.19
2023-04-15T06:36:24.510Z,99474.91
2023-04-15T06:46:29.501Z,99486.72
2023-04-15T06:56:33.390Z,99492.25
2023-04-15T07:06:38.793Z,99495.94
2023-04-15T07:16:42.651Z,99492.00
2023-04-15T07:26:47.725Z,99496.56
2023-04-15T07:36:52.071Z,99486.25
2023-04-15T07:46:58.059Z,99492.50
2023-04-15T07:57:03.153Z,99494.31
2023-04-15T08:07:08.882Z,99496.47
2023-04-15T08:17:12.773Z,99500.69
2023-04-15T08:27:18.017Z,99492.56
2023-04-15T08:37:22.961Z,99490.41
2023-04-15T08:47:31.643Z,99492.25
2023-04-15T08:57:36.125Z,99495.59
2023-04-15T09:07:41.362Z,99488.44
2023-04-15T09:17:46.119Z,99507.22
2023-04-15T09:27:51.999Z,99520.31
2023-04-15T09:38:05.164Z,99531.91
2023-04-15T09:48:22.280Z,99540.56
2023-04-15T09:58:27.877Z,99559.81
2023-04-15T10:08:35.757Z,99548.06
2023-04-15T10:18:44.163Z,99569.09
2023-04-15T10:28:49.294Z,99572.31
2023-04-15T10:38:53.098Z,99574.31
2023-04-15T10:48:58.370Z,99594.97
2023-04-15T10:59:02.744Z,99593.94
2023-04-15T11:09:09.637Z,99615.41
2023-04-15T11:19:13.304Z,99620.19
2023-04-15T11:29:20.274Z,99624.38
2023-04-15T11:39:24.687Z,99653.53
2023-04-15T11:49:30.780Z,99666.53
2023-04-15T11:59:45.743Z,99680.25
2023-04-15T12:09:58.695Z,99690.53
2023-04-15T12:20:02.487Z,99687.94
2023-04-15T12:30:09.589Z,99713.19
2023-04-15T12:40:13.537Z,99727.31
2023-04-15T12:50:18.887Z,99735.16
2023-04-15T13:00:23.066Z,99746.97
2023-04-15T13:10:29.260Z,99750.47
2023-04-15T13:20:33.111Z,99754.97
2023-04-15T13:30:39.498Z,99770.41
2023-04-15T13:40:43.104Z,99778.41
2023-04-15T13:50:48.197Z,99779.38
2023-04-15T14:00:51.925Z,99787.31
2023-04-15T14:10:57.679Z,99798.44
2023-04-15T14:21:01.540Z,99812.34
2023-04-15T14:31:06.974Z,99814.41
2023-04-15T14:41:11.124Z,99832.88
2023-04-15T14:51:16.234Z,99841.94
2023-04-15T15:01:20.053Z,99857.38
2023-04-15T15:11:25.450Z,99884.63
2023-04-15T15:21:29.276Z,99886.28
2023-04-15T15:31:36.051Z,99892.59
2023-04-15T15:41:39.738Z,99900.75
2023-04-15T15:51:45.646Z,99913.28
2023-04-15T16:01:50.282Z,99920.78
2023-04-15T16:11:55.862Z,99928.31
2023-04-15T16:22:01.086Z,99943.72
2023-04-15T16:32:07.231Z,99959.66
2023-04-15T16:42:11.012Z,99968.53
2023-04-15T16:52:16.169Z,99978.47
2023-04-15T17:02:20.022Z,99985.72
2023-04-15T17:12:25.291Z,99998.47
2023-04-15T17:22:29.875Z,100006.53
2023-04-15T17:32:39.661Z,100024.31
2023-04-15T17:42:43.545Z,100042.38
2023-04-15T17:52:48.645Z,100053.19
2023-04-15T18:02:52.900Z,100066.56
2023-04-15T18:12:58.404Z,100087.09
2023-04-15T18:23:02.058Z,100096.13
2023-04-15T18:33:07.153Z,100113.41
2023-04-15T18:43:10.891Z,100120.56
2023-04-15T18:53:16.419Z,100125.28
2023-04-15T19:03:20.359Z,100148.84
2023-04-15T19:13:26.300Z,100163.50
2023-04-15T19:23:31.897Z,100166.53
2023-04-15T19:33:37.046Z,100167.69
2023-04-15T19:43:40.858Z,100171.84
2023-04-15T19:53:46.443Z,100185.50
2023-04-15T20:03:50.314Z,100190.81
2023-04-15T20:13:55.719Z,100192.88
2023-04-15T20:23:59.376Z,100206.41
2023-04-15T20:34:04.390Z,100198.09
2023-04-15T20:44:08.129Z,100214.34
2023-04-15T20:54:13.154Z,100210.53
2023-04-15T21:04:17.025Z,100210.78
2023-04-15T21:14:22.587Z,100224.06
2023-04-15T21:24:26.555Z,100237.88
2023-04-15T21:34:31.855Z,100245.16
2023-04-15T21:44:35.662Z,100264.44
2023-04-15T21:54:40.931Z,100277.25
2023-04-15T22:04:44.865Z,100272.13
2023-04-15T22:14:50.605Z,100291.66
2023-04-15T22:24:54.460Z,100292.78
2023-04-15T22:35:00.293Z,100310.66
2023-04-15T22:45:04.315Z,100313.53
2023-04-15T22:55:10.488Z,100325.09
2023-04-15T23:05:14.301Z,100333.59
2023-04-15T23:15:19.366Z,100344.03
2023-04-15T23:25:23.232Z,100350.94
2023-04-15T23:35:28.452Z,100344.91
2023-04-15T23:45:32.156Z,100337.22
2023-04-15T23:55:37.275Z,100328.88
